Palmer, AK

1:14 PM AKST on January 27, 2015 (GMT -0900)
Gold-Key Estates | Change Station
CLOSE
Current Station
Personal Weather Station
Location: Palmer, AK
Elevation: 203 ft
Nearby Weather Stations

Elev 203 ft 61.62 °N, 149.10 °W | Updated 4 minutes ago

Overcast
Overcast
9.1 °F
Feels Like 9 °F
N
2.2
Wind Variable Wind from SSE

Today
High -- | Low -- °F
--% Chance of Precip.
Yesterday
High -- | Low -- °F
Precip. -- in
9:31 AM 4:47 PM
First Quarter, 58% visible
Pressure 30.03 in
Visibility 10.0 miles
Clouds Overcast 5000 ft
Windchill 9 °F
Dew Point 4 °F
Humidity 80%
Rainfall 0.00 in
Snow Depth Not available.
UV 0 out of 12
Pollen Not available.
Air Quality Not available.
Flu Activity Not available.
METAR PAAQ 272153Z 00000KT 10SM OVC050 M13/M16 A3000 RMK AO2 SLP168 T11331161

More Conditions Fewer Conditions

Pressure 30.03 in
Visibility 10.0 miles
Clouds Overcast 5000 ft
Windchill 9 °F
Dew Point 4 °F
Humidity 80%
Rainfall 0.00 in
Snow Depth Not available.
UV 0 out of 12
Pollen Not available.
Air Quality Not available.
Flu Activity Not available.
METAR PAAQ 272153Z 00000KT 10SM OVC050 M13/M16 A3000 RMK AO2 SLP168 T11331161

More Conditions Fewer Conditions

10-Day Weather Forecast

Almanac

Astronomy

Jan. 27, 2015 Rise Set
Actual Time
Civil Twilight
Nautical Twilight
Astronomical Twilight
Moon
Length of Visible Light
Length of Day
Tomorrow will be .
, % of the Moon is Illuminated

Today's Extremes

State Highs State Lows

Community

WunderPhotos

Upload Photos

1,790,930 photos uploaded!

WunderBlogs® & News

Nearby

Air Quality

  Air Quality AQ Index Pollutant
Not available.

Snow Depth

Station Depth Elevation

Earthquake Activity

City Distance Mag. Time & Date
Minimum magnitude displayed is 2.5.

Coastal Water Temperatures

Place Temperature

Nearby Weather Stations